Old Nevada, Nevada
Current Conditions -  °F | °C
As of 8:56 AM on Thursday 23 Oct 2014 (Local Time) from KHND Reporting Station
Clear Clear  
Wind Chill: 68°   Ceiling: Unl
Heat Index: 68°   Visibility: 10mi
Dew Point: 31°   Wind: 3mph
Humidity: 25%   Direction: 200°SSW
Pressure: 30.13"   Gusts: NA
Location:  35.8437°N, 115.134°W
Report Text: KHND 231556Z 20003KT 10SM CLR 20/M01 A3013 RMK AO2 T02001005 SLP188
Loading
Personal Weather Stations






























Interactive Weather Map
Tropical Storm Tracking
New forecast layout! Learn more

10-Day Weather Forecast

Advertisements
Track Severe Weather on mobile